Terminal Aerodrome Forecast
Issued by NWS Twin Cities, MN

Home | Current Version | Previous Version | Text Only | Print | Product List | Glossary On
Versions: 1 2 3 4 5 6 7 8 9 10 11 12 13 14 15 16 17 18 19
496
FTUS43 KMPX 291135
TAFSTC
TAF
KSTC 291135Z 2912/3012 26007KT 6SM -SHRA BR SCT007 OVC010
      TEMPO 2912/2914 4SM -SHRA BR BKN007
     FM291400 29010KT P6SM OVC012
     FM291600 28011KT P6SM BKN025
     FM291800 27012G18KT P6SM VCSH BKN045
     FM292200 29011KT P6SM SCT050
     FM300200 29006KT P6SM SKC
     FM300800 VRB03KT 4SM BR FEW008=

USA.gov is the U.S. government's official web portal to all federal, state and local government web resources and services.